Time;durP1;ratioP1;P1;durP2;ratioP2;P2;SDS_P1;SDS_P2;PMS_P1;PMS_P2;Temp;Humidity;BMP_temperature;BMP_pressure;BME280_temperature;BME280_humidity;BME280_pressure;Samples;Min_cycle;Max_cycle;Signal;HPM_P1;HPM_P2
2023/05/29 00:00:23;;;;;;;3.88;2.42;;;18.70;76.20;;;;;;5057657;28;20176;-69
2023/05/29 00:02:50;;;;;;;4.47;2.25;;;18.70;75.70;;;;;;5038706;28;20334;-69
2023/05/29 00:05:16;;;;;;;3.97;2.22;;;18.70;75.80;;;;;;5050782;28;20193;-69
2023/05/29 00:07:45;;;;;;;3.92;2.40;;;18.70;76.10;;;;;;5058079;28;20197;-70
2023/05/29 00:10:11;;;;;;;6.15;2.45;;;18.60;76.30;;;;;;5058410;28;20280;-69
2023/05/29 00:12:38;;;;;;;3.50;2.08;;;18.60;76.60;;;;;;5057454;28;20225;-69
2023/05/29 00:15:07;;;;;;;3.72;2.38;;;18.60;76.70;;;;;;5058166;28;20173;-69
2023/05/29 00:17:34;;;;;;;3.22;2.10;;;18.60;76.80;;;;;;5056037;28;20198;-70
2023/05/29 00:20:03;;;;;;;6.93;2.58;;;18.50;77.00;;;;;;5058107;28;20264;-70
2023/05/29 00:22:31;;;;;;;3.78;2.13;;;18.50;77.20;;;;;;5054393;28;20269;-69
2023/05/29 00:25:02;;;;;;;3.08;2.33;;;18.50;78.00;;;;;;5050240;28;20182;-70
2023/05/29 00:27:33;;;;;;;4.13;2.10;;;18.40;77.70;;;;;;5074501;28;20173;-69
2023/05/29 00:29:59;;;;;;;4.70;2.47;;;18.40;78.00;;;;;;5057887;28;20187;-68
2023/05/29 00:32:25;;;;;;;5.75;2.97;;;18.40;78.30;;;;;;5058040;28;20221;-69
2023/05/29 00:34:51;;;;;;;4.18;2.70;;;18.30;78.40;;;;;;5057479;28;20201;-69
2023/05/29 00:37:17;;;;;;;3.60;2.35;;;18.30;78.60;;;;;;5058719;28;20201;-69
2023/05/29 00:39:43;;;;;;;3.85;2.20;;;18.20;78.70;;;;;;5056256;28;20193;-69
2023/05/29 00:42:08;;;;;;;3.60;2.42;;;18.20;79.10;;;;;;5060952;28;20322;-70
2023/05/29 00:44:35;;;;;;;3.85;2.25;;;18.20;79.40;;;;;;5062635;28;20247;-69
2023/05/29 00:47:04;;;;;;;4.80;2.55;;;18.10;79.40;;;;;;5057499;28;20196;-69
2023/05/29 00:49:29;;;;;;;5.88;2.58;;;18.10;79.60;;;;;;5049500;28;20208;-69
2023/05/29 00:51:58;;;;;;;2.92;2.20;;;18.00;80.00;;;;;;5057192;28;20193;-69
2023/05/29 00:54:28;;;;;;;3.75;2.10;;;18.00;80.80;;;;;;5057127;28;20213;-69
2023/05/29 00:56:57;;;;;;;3.75;2.20;;;18.00;81.20;;;;;;5057482;28;20178;-69
2023/05/29 00:59:25;;;;;;;4.38;2.47;;;17.90;80.80;;;;;;5056765;28;20201;-69
2023/05/29 01:01:54;;;;;;;4.55;2.53;;;17.90;80.90;;;;;;5056276;28;20292;-70
2023/05/29 01:04:23;;;;;;;2.50;1.90;;;17.80;81.20;;;;;;5057275;28;20177;-69
2023/05/29 01:06:49;;;;;;;3.47;1.98;;;17.70;81.40;;;;;;5057520;28;20177;-70
2023/05/29 01:09:17;;;;;;;5.50;2.10;;;17.70;82.20;;;;;;5057123;28;20454;-70
2023/05/29 01:12:20;;;;;;;4.15;2.38;;;17.70;82.00;;;;;;5057373;28;20193;-69
2023/05/29 01:14:50;;;;;;;4.10;2.38;;;17.60;84.60;;;;;;5056658;28;20161;-70
2023/05/29 01:17:22;;;;;;;5.82;2.10;;;17.60;83.20;;;;;;5056532;28;20170;-70
2023/05/29 01:20:05;;;;;;;6.43;2.70;;;17.50;82.70;;;;;;5056935;28;20208;-70
2023/05/29 01:22:51;;;;;;;4.38;2.22;;;17.50;85.40;;;;;;5056812;28;20272;-69
2023/05/29 01:25:38;;;;;;;4.32;2.03;;;17.50;86.10;;;;;;5056971;28;20185;-69
2023/05/29 01:28:07;;;;;;;3.88;2.35;;;17.40;84.40;;;;;;5057179;28;20836;-69
2023/05/29 01:30:34;;;;;;;3.88;2.40;;;17.40;83.90;;;;;;5057121;28;20208;-69
2023/05/29 01:33:00;;;;;;;4.25;2.15;;;17.30;84.70;;;;;;5056254;28;20224;-69
2023/05/29 01:35:26;;;;;;;5.97;1.88;;;17.30;84.80;;;;;;5057062;28;20176;-70
2023/05/29 01:37:54;;;;;;;4.53;2.10;;;17.30;85.20;;;;;;5056259;28;20184;-71
2023/05/29 01:40:21;;;;;;;4.57;2.30;;;17.20;85.60;;;;;;5056476;28;20173;-69
2023/05/29 01:42:47;;;;;;;4.93;2.20;;;17.20;85.70;;;;;;5056563;28;20201;-70
2023/05/29 01:45:13;;;;;;;3.17;2.10;;;17.20;86.20;;;;;;5061604;28;20181;-70
2023/05/29 01:47:39;;;;;;;3.55;1.90;;;17.10;86.40;;;;;;5057063;28;20203;-70
2023/05/29 01:50:09;;;;;;;3.15;2.08;;;17.10;87.50;;;;;;5051362;28;20235;-70
2023/05/29 01:52:35;;;;;;;3.10;2.13;;;17.10;87.40;;;;;;5056562;28;20299;-69
2023/05/29 01:55:00;;;;;;;2.75;2.05;;;17.10;87.60;;;;;;5048535;28;20232;-70
2023/05/29 01:57:31;;;;;;;3.25;2.10;;;17.00;87.70;;;;;;5055904;28;20198;-70
2023/05/29 01:59:57;;;;;;;3.00;1.77;;;17.00;88.50;;;;;;5042388;28;20182;-70
2023/05/29 02:02:24;;;;;;;3.85;2.17;;;17.00;88.40;;;;;;5042849;28;20209;-70
2023/05/29 02:04:53;;;;;;;4.15;2.10;;;16.90;88.50;;;;;;5036632;28;20178;-68
2023/05/29 02:07:21;;;;;;;3.45;1.90;;;16.90;88.90;;;;;;5043816;28;20185;-70
2023/05/29 02:09:47;;;;;;;5.47;2.05;;;16.90;89.10;;;;;;5045982;28;20403;-70
2023/05/29 02:12:15;;;;;;;4.68;2.10;;;16.80;89.70;;;;;;5052932;28;20217;-70
2023/05/29 02:14:40;;;;;;;2.70;1.90;;;16.80;90.40;;;;;;5036276;28;20183;-70
2023/05/29 02:17:07;;;;;;;2.58;2.05;;;16.80;90.30;;;;;;5056280;28;20169;-70
2023/05/29 02:19:32;;;;;;;4.22;2.22;;;16.80;90.50;;;;;;5052236;28;20197;-69
2023/05/29 02:21:58;;;;;;;2.97;2.03;;;16.70;90.50;;;;;;5052892;28;20201;-69
2023/05/29 02:24:25;;;;;;;2.30;2.00;;;16.70;90.40;;;;;;5056078;28;20205;-70
2023/05/29 02:26:53;;;;;;;3.63;1.92;;;16.60;90.70;;;;;;5048117;28;20481;-69
2023/05/29 02:29:21;;;;;;;3.50;2.10;;;16.60;90.80;;;;;;5055629;28;20201;-69
2023/05/29 02:31:49;;;;;;;2.95;2.03;;;16.50;90.90;;;;;;5050396;28;20197;-70
2023/05/29 02:34:15;;;;;;;2.47;1.83;;;16.50;91.30;;;;;;5037218;28;20202;-68
2023/05/29 02:36:40;;;;;;;2.97;2.10;;;16.40;91.30;;;;;;5055858;28;20268;-69
2023/05/29 02:39:06;;;;;;;5.30;2.42;;;16.40;91.50;;;;;;5055374;28;20225;-69
2023/05/29 02:41:34;;;;;;;4.65;2.30;;;16.40;92.00;;;;;;5055132;28;20186;-69
2023/05/29 02:44:00;;;;;;;3.55;2.03;;;16.40;92.60;;;;;;5055170;28;20181;-69
2023/05/29 02:46:25;;;;;;;3.55;2.08;;;16.30;92.50;;;;;;5055485;28;20187;-70
2023/05/29 02:48:51;;;;;;;4.93;2.33;;;16.20;92.70;;;;;;5055347;28;20196;-70
2023/05/29 02:51:17;;;;;;;2.60;1.88;;;16.20;92.50;;;;;;5054821;28;20184;-69
2023/05/29 02:53:42;;;;;;;3.65;2.28;;;16.20;92.70;;;;;;5055483;28;20199;-70
2023/05/29 02:56:08;;;;;;;4.38;2.17;;;16.20;92.90;;;;;;5055154;28;20189;-69
2023/05/29 02:58:35;;;;;;;2.38;1.90;;;16.10;92.70;;;;;;5054936;28;20177;-70
2023/05/29 03:01:03;;;;;;;4.63;2.40;;;16.00;93.00;;;;;;5063556;28;20189;-70
2023/05/29 03:03:30;;;;;;;4.40;1.80;;;16.00;93.30;;;;;;5040135;28;20181;-69
2023/05/29 03:05:55;;;;;;;5.63;1.98;;;15.90;93.00;;;;;;5055201;28;20239;-69
2023/05/29 03:08:21;;;;;;;4.38;2.15;;;15.90;93.40;;;;;;5054625;28;20259;-70
2023/05/29 03:10:49;;;;;;;4.15;2.10;;;15.80;93.50;;;;;;5051582;28;20202;-69
2023/05/29 03:13:15;;;;;;;3.03;2.03;;;15.80;94.00;;;;;;5035343;28;20206;-69
2023/05/29 03:15:43;;;;;;;2.75;1.88;;;15.80;93.60;;;;;;5049626;28;20188;-69
2023/05/29 03:18:08;;;;;;;3.67;1.90;;;15.70;94.20;;;;;;5055121;28;20212;-68
2023/05/29 03:20:35;;;;;;;3.38;2.05;;;15.70;93.90;;;;;;5054847;28;20215;-68
2023/05/29 03:23:01;;;;;;;3.28;2.00;;;15.70;94.00;;;;;;5054238;28;20177;-68
2023/05/29 03:25:26;;;;;;;3.28;2.03;;;15.60;94.30;;;;;;5054736;28;20232;-67
2023/05/29 03:27:52;;;;;;;2.33;1.70;;;15.60;94.00;;;;;;5042557;28;20192;-67
2023/05/29 03:30:19;;;;;;;3.15;2.00;;;15.50;94.00;;;;;;5036971;28;20214;-68
2023/05/29 03:32:45;;;;;;;3.10;1.90;;;15.50;94.10;;;;;;5054791;28;20219;-67
2023/05/29 03:35:12;;;;;;;3.20;1.90;;;15.40;94.10;;;;;;5054971;28;20264;-67
2023/05/29 03:37:38;;;;;;;3.40;1.85;;;15.40;94.30;;;;;;5054214;28;20255;-67
2023/05/29 03:40:05;;;;;;;4.85;1.90;;;15.40;94.40;;;;;;5054783;28;20182;-69
2023/05/29 03:42:31;;;;;;;3.60;2.10;;;15.30;94.30;;;;;;5054413;28;20300;-69
2023/05/29 03:44:56;;;;;;;2.78;1.85;;;15.30;94.70;;;;;;5054352;28;20263;-68
2023/05/29 03:47:22;;;;;;;2.42;1.98;;;15.30;94.80;;;;;;5054699;28;20210;-68
2023/05/29 03:49:53;;;;;;;4.88;2.10;;;15.20;94.60;;;;;;5054102;28;20169;-68
2023/05/29 03:52:23;;;;;;;3.83;2.05;;;15.20;94.70;;;;;;5053226;28;20189;-69
2023/05/29 03:54:51;;;;;;;5.38;2.00;;;15.20;94.90;;;;;;5034916;28;20194;-68
2023/05/29 03:57:16;;;;;;;4.63;2.28;;;15.10;94.90;;;;;;5045274;28;20207;-68
2023/05/29 03:59:42;;;;;;;2.95;1.65;;;15.10;94.80;;;;;;5054499;28;20264;-68
2023/05/29 04:02:08;;;;;;;2.28;1.80;;;15.10;94.80;;;;;;5054544;28;20247;-68
2023/05/29 04:04:35;;;;;;;5.05;1.98;;;15.00;95.10;;;;;;5054058;28;20201;-68
2023/05/29 04:07:01;;;;;;;4.90;3.00;;;15.00;95.30;;;;;;5054419;28;20174;-68
2023/05/29 04:09:26;;;;;;;5.75;2.67;;;15.00;95.40;;;;;;5054198;28;20197;-69
2023/05/29 04:11:55;;;;;;;6.13;3.70;;;14.90;95.30;;;;;;5046582;28;20277;-68
2023/05/29 04:14:20;;;;;;;9.05;4.75;;;15.00;95.90;;;;;;5042162;28;20197;-69
2023/05/29 04:16:46;;;;;;;6.07;3.50;;;14.90;95.50;;;;;;5053743;28;20276;-68
2023/05/29 04:19:11;;;;;;;6.38;3.08;;;14.80;95.80;;;;;;5054290;28;20280;-70
2023/05/29 04:21:37;;;;;;;3.50;2.63;;;14.80;95.80;;;;;;5045677;28;20181;-68
2023/05/29 04:24:03;;;;;;;4.15;2.60;;;14.80;95.80;;;;;;5054190;28;20232;-68
2023/05/29 04:26:32;;;;;;;3.38;2.10;;;14.80;96.00;;;;;;5054285;28;20193;-68
2023/05/29 04:28:58;;;;;;;3.95;2.22;;;14.80;96.10;;;;;;5057583;28;20264;-68
2023/05/29 04:31:26;;;;;;;4.38;2.30;;;14.80;96.20;;;;;;5057732;28;20283;-68
2023/05/29 04:33:55;;;;;;;5.53;2.30;;;14.80;96.50;;;;;;5050386;28;20178;-68
2023/05/29 04:36:27;;;;;;;3.13;1.98;;;14.80;96.60;;;;;;5043958;28;20252;-69
2023/05/29 04:38:56;;;;;;;4.15;2.00;;;14.80;96.80;;;;;;5058374;28;20188;-69
2023/05/29 04:41:23;;;;;;;3.67;2.30;;;14.80;97.30;;;;;;5057151;28;20205;-68
2023/05/29 04:43:51;;;;;;;4.20;2.20;;;14.80;96.90;;;;;;5057763;28;20262;-68
2023/05/29 04:46:19;;;;;;;4.70;2.08;;;14.80;97.70;;;;;;5058226;28;20205;-66
2023/05/29 04:48:44;;;;;;;3.17;2.10;;;14.80;97.90;;;;;;5057429;28;20331;-66
2023/05/29 04:51:11;;;;;;;4.78;2.20;;;14.80;97.90;;;;;;5057610;28;20280;-66
2023/05/29 04:53:41;;;;;;;3.97;2.10;;;14.80;97.70;;;;;;5057278;28;20185;-66
2023/05/29 04:56:07;;;;;;;4.25;2.20;;;14.80;98.00;;;;;;5054388;28;20202;-66
2023/05/29 04:58:32;;;;;;;3.00;2.10;;;14.80;98.10;;;;;;5056634;28;20205;-65
2023/05/29 05:01:02;;;;;;;4.30;2.00;;;14.80;98.10;;;;;;5056822;28;20220;-66
2023/05/29 05:03:33;;;;;;;3.63;2.08;;;14.80;98.30;;;;;;5057054;28;20264;-66
2023/05/29 05:06:06;;;;;;;4.15;2.08;;;14.90;98.20;;;;;;5053737;28;20182;-66
2023/05/29 05:08:32;;;;;;;3.50;2.28;;;14.90;98.70;;;;;;5053511;28;20268;-66
2023/05/29 05:11:03;;;;;;;3.67;2.20;;;14.90;98.40;;;;;;5056870;28;20173;-66
2023/05/29 05:13:31;;;;;;;5.07;2.40;;;14.90;98.40;;;;;;5056834;28;20201;-66
2023/05/29 05:15:59;;;;;;;5.15;2.38;;;15.00;98.70;;;;;;5053798;28;20196;-66
2023/05/29 05:18:24;;;;;;;4.15;2.25;;;15.00;98.70;;;;;;5043594;28;20205;-66
2023/05/29 05:20:55;;;;;;;4.13;2.22;;;15.00;98.50;;;;;;5057298;28;20176;-66
2023/05/29 05:23:22;;;;;;;4.15;2.25;;;15.00;98.70;;;;;;5053838;28;20189;-66
2023/05/29 05:25:48;;;;;;;4.57;2.42;;;15.00;98.80;;;;;;5048959;28;20242;-65
2023/05/29 05:28:14;;;;;;;6.43;2.78;;;15.00;98.60;;;;;;5056746;28;20208;-66
2023/05/29 05:30:40;;;;;;;6.25;2.78;;;15.00;99.20;;;;;;5056953;28;20253;-65
2023/05/29 05:33:08;;;;;;;4.07;2.53;;;15.00;99.50;;;;;;5056659;28;20205;-66
2023/05/29 05:35:36;;;;;;;4.10;2.55;;;15.00;99.40;;;;;;5056263;28;20173;-66
2023/05/29 05:38:04;;;;;;;7.28;2.85;;;15.00;99.90;;;;;;5056969;28;20204;-66
2023/05/29 05:40:30;;;;;;;3.90;2.38;;;15.10;99.90;;;;;;5039643;28;20185;-66
2023/05/29 05:42:56;;;;;;;4.97;2.65;;;15.20;99.90;;;;;;5056189;28;20197;-66
2023/05/29 05:45:23;;;;;;;5.03;2.85;;;15.20;99.90;;;;;;5056335;28;20188;-66
2023/05/29 05:47:54;;;;;;;5.75;2.88;;;15.20;99.90;;;;;;5056300;28;20181;-65
2023/05/29 05:50:21;;;;;;;5.53;2.58;;;15.20;99.70;;;;;;5056420;28;20193;-66
2023/05/29 05:52:49;;;;;;;4.38;2.53;;;15.20;99.60;;;;;;5056311;28;20203;-66
2023/05/29 05:55:17;;;;;;;7.47;2.92;;;15.20;99.80;;;;;;5056537;28;20165;-66
2023/05/29 05:57:43;;;;;;;4.68;2.38;;;15.30;99.90;;;;;;5056262;28;20181;-66
2023/05/29 06:00:14;;;;;;;6.72;2.75;;;15.30;99.90;;;;;;5056266;28;20252;-66
2023/05/29 06:02:42;;;;;;;5.35;2.72;;;15.30;99.90;;;;;;5055956;28;20193;-65
2023/05/29 06:05:09;;;;;;;5.88;2.60;;;15.30;99.90;;;;;;5055801;28;20463;-66
2023/05/29 06:07:37;;;;;;;4.63;2.55;;;15.40;99.90;;;;;;5055950;28;20177;-66
2023/05/29 06:10:04;;;;;;;4.85;2.90;;;15.40;99.90;;;;;;5055954;28;20266;-66
2023/05/29 06:12:35;;;;;;;4.88;3.08;;;15.40;99.90;;;;;;5055999;28;20200;-66
2023/05/29 06:15:00;;;;;;;4.38;2.67;;;15.50;99.90;;;;;;5055068;28;20193;-66
2023/05/29 06:17:26;;;;;;;4.50;2.15;;;15.50;99.90;;;;;;5056015;28;20175;-66
2023/05/29 06:19:52;;;;;;;4.40;2.30;;;15.50;99.90;;;;;;5055623;28;20204;-66
2023/05/29 06:22:18;;;;;;;5.18;2.80;;;15.50;99.90;;;;;;5055856;28;20182;-66
2023/05/29 06:24:44;;;;;;;4.43;2.53;;;15.60;99.90;;;;;;5052178;28;20182;-66
2023/05/29 06:27:12;;;;;;;5.57;2.63;;;15.60;99.90;;;;;;5044286;28;20193;-66
2023/05/29 06:29:37;;;;;;;5.95;2.42;;;15.60;99.90;;;;;;5046038;28;20183;-65
2023/05/29 06:32:03;;;;;;;4.22;2.50;;;15.60;99.90;;;;;;5055359;28;20189;-63
2023/05/29 06:34:31;;;;;;;4.72;3.00;;;15.60;99.90;;;;;;5046653;28;20242;-66
2023/05/29 06:36:57;;;;;;;4.93;2.70;;;15.60;99.90;;;;;;5055224;28;20177;-65
2023/05/29 06:39:30;;;;;;;4.40;2.58;;;15.60;99.90;;;;;;5055680;28;20180;-66
2023/05/29 06:41:55;;;;;;;6.63;2.78;;;15.70;99.90;;;;;;5055356;28;20205;-66
2023/05/29 06:44:21;;;;;;;4.72;2.60;;;15.70;99.90;;;;;;5052841;28;20177;-66
2023/05/29 06:46:46;;;;;;;5.90;3.00;;;15.80;99.90;;;;;;5055429;28;20228;-64
2023/05/29 06:49:12;;;;;;;7.88;2.70;;;15.90;99.90;;;;;;5055034;28;20195;-64
2023/05/29 06:51:38;;;;;;;9.77;3.83;;;15.90;99.90;;;;;;5046470;28;20285;-66
2023/05/29 06:54:03;;;;;;;5.80;3.03;;;15.90;99.90;;;;;;5054668;28;20176;-66
2023/05/29 06:56:31;;;;;;;6.43;3.10;;;15.90;99.90;;;;;;5055099;28;20205;-66
2023/05/29 06:58:59;;;;;;;5.80;2.80;;;15.90;99.90;;;;;;5042147;28;20197;-66
2023/05/29 07:01:27;;;;;;;5.32;2.67;;;15.90;99.90;;;;;;5035370;28;20181;-66
2023/05/29 07:03:56;;;;;;;7.72;2.85;;;16.00;99.90;;;;;;5054782;28;20242;-66
2023/05/29 07:06:21;;;;;;;7.00;2.92;;;16.00;99.90;;;;;;5054809;28;20184;-66
2023/05/29 07:08:49;;;;;;;3.92;2.55;;;16.00;99.90;;;;;;5055446;28;20170;-66
2023/05/29 07:11:17;;;;;;;4.60;2.55;;;16.00;99.90;;;;;;5054527;28;20170;-66
2023/05/29 07:13:43;;;;;;;6.53;2.58;;;16.10;99.90;;;;;;5054752;28;20235;-66
2023/05/29 07:16:08;;;;;;;7.22;2.70;;;16.20;99.90;;;;;;5055068;28;20177;-65
2023/05/29 07:18:36;;;;;;;5.93;2.83;;;16.10;99.90;;;;;;5054743;28;20275;-66
2023/05/29 07:21:06;;;;;;;4.35;2.40;;;16.20;99.90;;;;;;5045440;28;20257;-66
2023/05/29 07:23:31;;;;;;;4.75;2.80;;;16.30;99.90;;;;;;5053026;28;20201;-66
2023/05/29 07:25:57;;;;;;;5.82;2.85;;;16.30;99.90;;;;;;5054482;28;20207;-66
2023/05/29 07:28:23;;;;;;;10.00;6.55;;;16.40;99.90;;;;;;5054659;28;20323;-66
2023/05/29 07:30:53;;;;;;;7.80;3.80;;;16.40;99.90;;;;;;5054581;28;20194;-66
2023/05/29 07:33:18;;;;;;;6.10;3.20;;;16.50;99.90;;;;;;5054316;28;20216;-66
2023/05/29 07:35:44;;;;;;;6.78;3.33;;;16.50;99.90;;;;;;5054982;28;20188;-66
2023/05/29 07:38:10;;;;;;;6.05;3.10;;;16.50;99.90;;;;;;5054337;28;20260;-65
2023/05/29 07:40:38;;;;;;;6.60;3.00;;;16.60;99.90;;;;;;5051437;28;20192;-66
2023/05/29 07:43:03;;;;;;;5.38;2.78;;;16.60;99.90;;;;;;5042481;28;20192;-66
2023/05/29 07:45:29;;;;;;;6.65;2.80;;;16.70;99.90;;;;;;5054804;28;20170;-68
2023/05/29 07:47:57;;;;;;;5.38;2.95;;;16.70;99.90;;;;;;5054325;28;20173;-66
2023/05/29 07:50:25;;;;;;;6.20;3.35;;;16.70;99.90;;;;;;5054648;28;20255;-66
2023/05/29 07:52:51;;;;;;;6.55;3.58;;;16.80;99.90;;;;;;5054438;28;20217;-66
2023/05/29 07:55:16;;;;;;;5.15;2.70;;;16.90;99.90;;;;;;5054272;28;20213;-66
2023/05/29 07:57:45;;;;;;;5.88;2.80;;;16.90;99.90;;;;;;5054382;28;20174;-66
2023/05/29 08:00:14;;;;;;;4.65;2.60;;;16.90;99.90;;;;;;5053798;28;20208;-66
2023/05/29 08:02:45;;;;;;;5.90;3.00;;;17.00;99.90;;;;;;5055867;28;20185;-66
2023/05/29 08:05:10;;;;;;;6.18;3.08;;;17.00;99.90;;;;;;5038590;28;20263;-64
2023/05/29 08:07:38;;;;;;;6.70;3.10;;;17.10;99.90;;;;;;5039202;28;20193;-66
2023/05/29 08:10:07;;;;;;;5.40;3.10;;;17.20;99.90;;;;;;5043043;28;20267;-66
2023/05/29 08:12:35;;;;;;;5.30;2.72;;;17.20;99.90;;;;;;5058956;28;20270;-67
2023/05/29 08:15:02;;;;;;;6.60;3.20;;;17.30;99.90;;;;;;5052987;28;20212;-66
2023/05/29 08:17:30;;;;;;;5.85;2.95;;;17.40;99.90;;;;;;5074657;28;20176;-66
2023/05/29 08:20:00;;;;;;;6.25;3.15;;;17.40;99.90;;;;;;5057935;28;20205;-66
2023/05/29 08:22:29;;;;;;;9.48;3.22;;;17.50;99.90;;;;;;5058582;28;20223;-66
2023/05/29 08:24:55;;;;;;;5.25;3.10;;;17.50;99.90;;;;;;5057885;28;20181;-66
2023/05/29 08:27:21;;;;;;;5.78;2.88;;;17.60;99.90;;;;;;5046324;28;20178;-65
2023/05/29 08:29:47;;;;;;;8.38;3.58;;;17.60;99.90;;;;;;5050143;28;20178;-67
2023/05/29 08:32:14;;;;;;;7.95;3.35;;;17.70;99.90;;;;;;5057798;28;20193;-66
2023/05/29 08:34:41;;;;;;;6.25;3.00;;;17.70;99.90;;;;;;5043658;28;20190;-67
2023/05/29 08:37:10;;;;;;;5.47;2.90;;;17.80;99.90;;;;;;5054476;28;20580;-66
2023/05/29 08:39:38;;;;;;;5.55;2.70;;;17.80;99.90;;;;;;5058018;28;20173;-67
2023/05/29 08:42:04;;;;;;;6.40;2.80;;;17.90;99.90;;;;;;5054202;28;20202;-66
2023/05/29 08:44:34;;;;;;;7.20;2.70;;;18.00;99.90;;;;;;5056857;28;20185;-68
2023/05/29 08:47:06;;;;;;;4.70;2.60;;;18.00;99.90;;;;;;5057348;28;20228;-67
2023/05/29 08:49:45;;;;;;;5.60;2.85;;;18.10;99.90;;;;;;5057922;28;20196;-66
2023/05/29 08:52:21;;;;;;;6.20;2.85;;;18.20;99.90;;;;;;5042864;28;20206;-66
2023/05/29 08:54:49;;;;;;;7.60;3.25;;;18.30;99.90;;;;;;5057875;28;20173;-66
2023/05/29 08:57:20;;;;;;;5.72;2.40;;;18.30;99.90;;;;;;5055823;28;20197;-67
2023/05/29 08:59:49;;;;;;;6.70;2.40;;;18.30;99.90;;;;;;5057500;28;20223;-67
2023/05/29 09:02:15;;;;;;;6.78;2.88;;;18.40;99.90;;;;;;5057420;28;20231;-66
2023/05/29 09:04:52;;;;;;;7.20;3.28;;;18.40;99.90;;;;;;5057405;28;20177;-67
2023/05/29 09:07:25;;;;;;;6.70;3.45;;;18.50;99.90;;;;;;5057334;28;20226;-66
2023/05/29 09:09:51;;;;;;;5.72;3.00;;;18.60;99.90;;;;;;5057615;28;20176;-66
2023/05/29 09:12:16;;;;;;;4.63;2.55;;;18.70;99.90;;;;;;5054267;28;20198;-66
2023/05/29 09:14:46;;;;;;;7.63;2.70;;;18.80;99.90;;;;;;5056123;28;20173;-66
2023/05/29 09:17:13;;;;;;;5.50;2.50;;;18.90;99.90;;;;;;5056174;28;20184;-68
2023/05/29 09:19:40;;;;;;;4.93;2.47;;;18.90;99.90;;;;;;5056826;28;20206;-66
2023/05/29 09:22:16;;;;;;;4.68;2.40;;;19.00;99.90;;;;;;5056665;28;20203;-66
2023/05/29 09:24:47;;;;;;;4.57;2.22;;;19.10;99.90;;;;;;5057178;28;20253;-66
2023/05/29 09:27:12;;;;;;;6.22;2.53;;;19.10;99.90;;;;;;5056738;28;20210;-64
2023/05/29 09:29:42;;;;;;;4.30;2.28;;;19.30;99.90;;;;;;5053716;28;20201;-66
2023/05/29 09:32:12;;;;;;;5.75;2.58;;;19.30;99.90;;;;;;5039261;28;20201;-65
2023/05/29 09:34:43;;;;;;;6.45;2.80;;;19.50;99.90;;;;;;5056786;28;20208;-66
2023/05/29 09:37:10;;;;;;;6.05;2.70;;;19.50;99.90;;;;;;5056820;28;20185;-67
2023/05/29 09:39:42;;;;;;;3.97;2.40;;;19.60;99.70;;;;;;5057443;28;20217;-67
2023/05/29 09:42:10;;;;;;;3.90;2.17;;;19.70;99.50;;;;;;5053028;28;20178;-66
2023/05/29 09:44:39;;;;;;;5.85;2.58;;;19.80;99.70;;;;;;5040683;28;20264;-66
2023/05/29 09:47:05;;;;;;;6.18;2.45;;;19.90;99.70;;;;;;5056618;28;20188;-64
2023/05/29 09:49:32;;;;;;;5.63;2.40;;;20.00;99.70;;;;;;5046110;28;20235;-66
2023/05/29 09:52:00;;;;;;;4.60;2.35;;;20.10;99.50;;;;;;5045112;28;20193;-66
2023/05/29 09:54:30;;;;;;;6.80;2.30;;;20.20;99.50;;;;;;5037009;28;20188;-66
2023/05/29 09:57:00;;;;;;;7.10;2.75;;;20.30;99.40;;;;;;5036571;28;20181;-67
2023/05/29 09:59:31;;;;;;;5.68;2.63;;;20.40;99.20;;;;;;5052756;28;20192;-66
2023/05/29 10:02:11;;;;;;;4.82;2.42;;;20.40;99.20;;;;;;5055948;28;20276;-65
2023/05/29 10:04:40;;;;;;;6.55;2.50;;;20.60;99.00;;;;;;5056134;28;20185;-66
2023/05/29 10:07:18;;;;;;;5.53;2.50;;;20.70;98.90;;;;;;5056495;28;20200;-67
2023/05/29 10:09:48;;;;;;;7.00;2.50;;;20.80;98.80;;;;;;5056384;28;20177;-66
2023/05/29 10:12:15;;;;;;;4.13;2.58;;;20.90;98.80;;;;;;5050998;28;20245;-67
2023/05/29 10:14:43;;;;;;;4.95;2.63;;;21.00;99.20;;;;;;5041445;28;20178;-66
2023/05/29 10:17:13;;;;;;;5.35;2.30;;;21.10;98.80;;;;;;5056247;28;20201;-66
2023/05/29 10:19:40;;;;;;;5.13;2.10;;;21.20;98.30;;;;;;5055879;28;20180;-65
2023/05/29 10:22:08;;;;;;;5.70;2.42;;;21.30;98.60;;;;;;5055382;28;20231;-66
2023/05/29 10:24:37;;;;;;;6.97;2.63;;;21.40;98.70;;;;;;5055916;28;20188;-66
2023/05/29 10:27:05;;;;;;;5.82;2.42;;;21.60;98.30;;;;;;5055465;28;20202;-67
2023/05/29 10:29:43;;;;;;;4.18;2.00;;;21.70;98.10;;;;;;5055318;28;20179;-66
2023/05/29 10:32:29;;;;;;;5.40;2.30;;;21.80;97.80;;;;;;5055852;28;20223;-66
2023/05/29 10:35:23;;;;;;;4.80;2.30;;;22.00;97.90;;;;;;5045581;28;20181;-67
2023/05/29 10:37:57;;;;;;;4.97;2.13;;;22.20;96.80;;;;;;5047733;28;20484;-67
2023/05/29 10:40:29;;;;;;;4.85;2.50;;;22.40;97.50;;;;;;5055693;28;20264;-66
2023/05/29 10:42:58;;;;;;;5.13;2.10;;;22.70;97.30;;;;;;5055431;28;20351;-67
2023/05/29 10:45:32;;;;;;;7.93;2.80;;;22.80;97.30;;;;;;5055539;28;20181;-67
2023/05/29 10:48:36;;;;;;;5.72;2.45;;;23.00;96.70;;;;;;5051785;28;20232;-68
2023/05/29 10:51:02;;;;;;;5.55;2.50;;;23.10;96.50;;;;;;5040113;28;20203;-67
2023/05/29 10:53:34;;;;;;;9.27;3.10;;;23.30;97.40;;;;;;5055506;28;20209;-66
2023/05/29 10:56:03;;;;;;;7.47;2.70;;;23.50;96.70;;;;;;5051382;28;20182;-66
2023/05/29 10:58:32;;;;;;;5.05;2.38;;;23.60;96.60;;;;;;5055067;28;20209;-67
2023/05/29 11:00:58;;;;;;;7.28;2.45;;;23.80;96.50;;;;;;5047005;28;20186;-66
2023/05/29 11:03:25;;;;;;;6.35;2.40;;;23.90;96.20;;;;;;5054622;28;20219;-67
2023/05/29 11:06:01;;;;;;;3.88;1.70;;;23.90;96.00;;;;;;5055039;28;20174;-66
2023/05/29 11:08:51;;;;;;;5.32;2.30;;;24.00;95.60;;;;;;5040826;28;20268;-66
2023/05/29 11:11:36;;;;;;;4.93;2.60;;;24.10;95.20;;;;;;5041767;28;20185;-67
2023/05/29 11:14:05;;;;;;;5.80;2.13;;;24.10;94.70;;;;;;5050495;28;20197;-66
2023/05/29 11:16:34;;;;;;;5.13;2.22;;;24.20;95.30;;;;;;5034937;28;20174;-67
2023/05/29 11:19:09;;;;;;;4.78;2.25;;;24.20;95.00;;;;;;5051047;28;20209;-66
2023/05/29 11:21:54;;;;;;;4.25;2.00;;;24.30;94.70;;;;;;5054843;28;20169;-67
2023/05/29 11:24:24;;;;;;;4.03;2.22;;;24.30;94.30;;;;;;5054647;28;20189;-66
2023/05/29 11:26:55;;;;;;;4.10;1.83;;;24.40;94.40;;;;;;5054800;28;20205;-67
2023/05/29 11:29:26;;;;;;;5.95;2.65;;;24.40;94.10;;;;;;5054683;28;20264;-67
2023/05/29 11:32:02;;;;;;;8.77;4.57;;;24.50;93.30;;;;;;5053124;28;20235;-67
2023/05/29 11:34:29;;;;;;;8.00;5.03;;;24.60;93.50;;;;;;5034806;28;20168;-66
2023/05/29 11:36:57;;;;;;;7.78;4.00;;;24.70;94.00;;;;;;5053785;28;20181;-68
2023/05/29 11:39:23;;;;;;;5.45;2.50;;;24.80;93.50;;;;;;5054469;28;20196;-67
2023/05/29 11:41:57;;;;;;;4.95;2.55;;;24.90;93.40;;;;;;5054245;28;20268;-66
2023/05/29 11:44:26;;;;;;;5.07;2.40;;;24.90;92.40;;;;;;5048341;28;20196;-66
2023/05/29 11:47:04;;;;;;;4.57;2.25;;;25.00;92.50;;;;;;5052398;28;20178;-67
2023/05/29 11:49:32;;;;;;;4.25;2.42;;;25.00;92.10;;;;;;5035524;28;20181;-67
2023/05/29 11:52:14;;;;;;;4.68;2.10;;;25.10;92.40;;;;;;5054225;28;20201;-67
2023/05/29 11:54:53;;;;;;;6.07;2.47;;;25.20;91.50;;;;;;5054489;28;20234;-67
2023/05/29 11:57:22;;;;;;;5.75;2.30;;;25.20;91.70;;;;;;5049237;28;20194;-68
2023/05/29 11:59:51;;;;;;;11.43;2.60;;;25.20;91.60;;;;;;5042722;28;20166;-66
2023/05/29 12:02:17;;;;;;;5.05;2.30;;;25.30;91.50;;;;;;5052709;28;20240;-66
2023/05/29 12:05:03;;;;;;;4.38;2.03;;;25.40;91.90;;;;;;5054168;28;20192;-66
2023/05/29 12:07:28;;;;;;;4.75;2.35;;;25.50;91.10;;;;;;5054424;28;20204;-66
2023/05/29 12:09:57;;;;;;;5.72;2.15;;;25.60;91.70;;;;;;5053964;28;20215;-66
2023/05/29 12:12:23;;;;;;;3.60;2.00;;;25.70;91.60;;;;;;5054026;28;20205;-67
2023/05/29 12:14:53;;;;;;;4.00;2.00;;;25.80;91.50;;;;;;5054376;28;20196;-66
2023/05/29 12:17:22;;;;;;;5.15;2.17;;;25.90;90.90;;;;;;5052276;28;20213;-67
2023/05/29 12:19:50;;;;;;;5.28;2.40;;;25.90;91.10;;;;;;5038134;28;20177;-67
2023/05/29 12:22:16;;;;;;;5.78;2.15;;;26.00;90.80;;;;;;5046511;28;20209;-68
2023/05/29 12:24:41;;;;;;;4.82;2.35;;;26.10;90.40;;;;;;5040126;28;20174;-68
2023/05/29 12:27:08;;;;;;;3.80;2.00;;;26.10;90.40;;;;;;5054115;28;20193;-66
2023/05/29 12:29:34;;;;;;;4.95;2.47;;;26.20;90.40;;;;;;5054255;28;20180;-67
2023/05/29 12:32:00;;;;;;;5.07;2.15;;;26.30;90.50;;;;;;5053817;28;20209;-66
2023/05/29 12:34:34;;;;;;;4.72;2.50;;;26.40;90.20;;;;;;5046153;28;20181;-66
2023/05/29 12:37:09;;;;;;;4.05;1.90;;;26.50;89.80;;;;;;5053627;28;21689;-66
2023/05/29 12:39:37;;;;;;;4.85;2.42;;;26.50;85.30;;;;;;5054191;28;20195;-69
2023/05/29 12:42:03;;;;;;;4.47;2.10;;;26.50;87.80;;;;;;5053937;28;20292;-67
2023/05/29 12:44:32;;;;;;;4.18;2.10;;;26.40;87.40;;;;;;5054025;28;20311;-68
2023/05/29 12:46:58;;;;;;;5.25;2.40;;;26.40;87.20;;;;;;5054045;28;20173;-66
2023/05/29 12:49:25;;;;;;;2.95;2.10;;;26.40;86.80;;;;;;5056751;28;20277;-66
2023/05/29 12:51:53;;;;;;;3.55;2.00;;;26.40;86.40;;;;;;5057236;28;20193;-67
2023/05/29 12:54:19;;;;;;;4.57;2.22;;;26.40;86.30;;;;;;5074130;28;20247;-68